Time;durP1;ratioP1;P1;durP2;ratioP2;P2;SDS_P1;SDS_P2;PMS_P1;PMS_P2;Temp;Humidity;BMP_temperature;BMP_pressure;BME280_temperature;BME280_humidity;BME280_pressure;Samples;Min_cycle;Max_cycle;Signal;HPM_P1;HPM_P2
2022/01/27 00:01:43;;;;;;;4.27;3.07;;;-1.10;99.90;;;;;;5038491;28;20451;-55
2022/01/27 00:04:16;;;;;;;4.20;2.67;;;-1.80;99.90;;;;;;5041189;28;20465;-52
2022/01/27 00:06:43;;;;;;;2.70;2.10;;;-1.90;99.90;;;;;;5031322;28;20487;-54
2022/01/27 00:09:19;;;;;;;3.90;1.47;;;-1.70;99.90;;;;;;5024426;28;20533;-54
2022/01/27 00:11:48;;;;;;;1.83;1.60;;;-1.70;99.90;;;;;;5035599;28;20485;-56
2022/01/27 00:14:18;;;;;;;4.20;3.23;;;-1.60;99.90;;;;;;5028155;28;20458;-52
2022/01/27 00:16:54;;;;;;;9.33;5.63;;;-1.40;99.90;;;;;;5036404;28;20461;-52
2022/01/27 00:19:22;;;;;;;6.73;2.83;;;-1.70;99.90;;;;;;5024583;28;20477;-51
2022/01/27 00:21:50;;;;;;;3.20;2.90;;;-2.00;99.90;;;;;;5036585;28;20492;-54
2022/01/27 00:24:17;;;;;;;6.23;4.53;;;-1.90;99.90;;;;;;5033810;28;20487;-55
2022/01/27 00:26:45;;;;;;;7.33;5.23;;;-1.90;99.90;;;;;;5032459;28;20500;-53
2022/01/27 00:29:12;;;;;;;10.97;5.33;;;-1.70;99.90;;;;;;5034908;28;20475;-54
2022/01/27 00:31:39;;;;;;;7.07;4.40;;;-2.10;99.90;;;;;;5037264;28;20996;-54
2022/01/27 00:34:06;;;;;;;4.23;2.33;;;-2.30;99.90;;;;;;5036386;28;20482;-55
2022/01/27 00:36:34;;;;;;;3.10;2.80;;;-1.70;99.90;;;;;;5037730;28;20497;-51
2022/01/27 00:39:02;;;;;;;5.70;4.83;;;-1.60;99.90;;;;;;5023201;28;20521;-53
2022/01/27 00:41:29;;;;;;;4.53;3.90;;;-1.50;99.90;;;;;;5030744;28;20495;-51
2022/01/27 00:43:56;;;;;;;7.33;4.70;;;-1.40;99.90;;;;;;5038350;28;20519;-55
2022/01/27 00:46:23;;;;;;;6.40;5.20;;;-1.40;99.90;;;;;;5042601;28;20469;-51
2022/01/27 00:48:51;;;;;;;5.17;4.30;;;-1.60;99.90;;;;;;5036043;28;20508;-53
2022/01/27 00:51:22;;;;;;;4.77;4.37;;;-1.60;99.90;;;;;;5025572;28;20485;-54
2022/01/27 00:53:58;;;;;;;6.13;3.80;;;-1.50;99.90;;;;;;5033969;28;20508;-54
2022/01/27 00:56:31;;;;;;;3.13;2.80;;;-1.50;99.90;;;;;;5036751;28;20544;-57
2022/01/27 00:59:19;;;;;;;3.87;3.47;;;-1.40;99.90;;;;;;5040726;28;20474;-53
2022/01/27 01:01:54;;;;;;;2.30;2.10;;;-1.40;99.90;;;;;;5028571;28;20476;-52
2022/01/27 01:04:26;;;;;;;3.60;2.67;;;-1.50;99.90;;;;;;5022780;28;20519;-51
2022/01/27 01:06:53;;;;;;;2.07;1.90;;;-1.60;99.90;;;;;;5021022;28;20506;-54
2022/01/27 01:14:51;;;;;;;2.50;1.87;;;-1.60;99.90;;;;;;5035782;28;20429;-50
2022/01/27 01:31:14;;;;;;;3.17;2.00;;;-1.40;99.90;;;;;;5039620;28;20939;-53
2022/01/27 01:33:43;;;;;;;3.20;1.87;;;-1.40;99.90;;;;;;5035803;28;20450;-55
2022/01/27 01:36:27;;;;;;;1.53;1.43;;;-1.40;99.90;;;;;;5040735;28;20488;-54
2022/01/27 01:38:54;;;;;;;1.67;1.40;;;-1.50;99.90;;;;;;5028276;28;20499;-53
2022/01/27 01:41:22;;;;;;;2.67;2.27;;;-1.50;99.90;;;;;;5049036;28;20565;-53
2022/01/27 01:43:49;;;;;;;2.40;1.90;;;-1.40;99.90;;;;;;5043301;28;20490;-56
2022/01/27 01:46:16;;;;;;;4.60;2.07;;;-1.40;99.90;;;;;;5036297;28;20504;-54
2022/01/27 01:48:43;;;;;;;2.47;1.67;;;-1.50;99.90;;;;;;5027991;28;20487;-56
2022/01/27 01:51:12;;;;;;;2.00;1.53;;;-1.60;99.90;;;;;;5031660;28;20908;-53
2022/01/27 01:53:39;;;;;;;1.67;1.27;;;-1.80;99.90;;;;;;5034679;28;20470;-53
2022/01/27 01:56:06;;;;;;;2.30;1.90;;;-1.90;99.90;;;;;;5035553;28;20497;-53
2022/01/27 01:58:34;;;;;;;1.67;1.57;;;-2.00;99.90;;;;;;5043397;28;20847;-53
2022/01/27 02:01:01;;;;;;;1.77;1.50;;;-1.90;99.90;;;;;;5033506;28;20476;-53
2022/01/27 02:03:28;;;;;;;1.77;1.60;;;-1.80;99.90;;;;;;5035714;28;20479;-52
2022/01/27 02:05:57;;;;;;;1.27;1.17;;;-1.70;99.90;;;;;;5037926;28;20536;-54
2022/01/27 02:08:39;;;;;;;1.67;1.57;;;-1.60;99.90;;;;;;5031921;28;20459;-52
2022/01/27 02:19:27;;;;;;;1.03;0.97;;;-1.50;99.90;;;;;;5030259;28;20555;-53
2022/01/27 02:21:57;;;;;;;1.13;1.03;;;-1.50;99.90;;;;;;5027149;28;20483;-52
2022/01/27 02:24:26;;;;;;;2.33;1.43;;;-1.50;99.90;;;;;;5039444;28;20981;-53
2022/01/27 02:26:53;;;;;;;2.73;2.17;;;-1.60;99.90;;;;;;5036047;28;20499;-52
2022/01/27 02:29:21;;;;;;;3.93;2.20;;;-1.60;99.90;;;;;;5034466;28;20457;-55
2022/01/27 02:31:50;;;;;;;1.57;1.23;;;-1.60;99.90;;;;;;5032096;28;21065;-56
2022/01/27 02:34:17;;;;;;;1.73;1.63;;;-1.70;99.90;;;;;;5034421;28;20888;-53
2022/01/27 02:36:44;;;;;;;5.10;2.90;;;-1.70;99.90;;;;;;5041396;28;20891;-53
2022/01/27 02:39:14;;;;;;;2.40;2.30;;;-1.80;99.90;;;;;;5039668;28;20489;-54
2022/01/27 02:41:46;;;;;;;2.23;2.00;;;-2.10;99.90;;;;;;5032910;28;20546;-56
2022/01/27 02:44:25;;;;;;;1.33;1.10;;;-3.00;99.90;;;;;;5032017;28;20474;-53
2022/01/27 02:46:55;;;;;;;2.30;1.00;;;-2.90;99.90;;;;;;5096322;23;20459;-81
2022/01/27 02:49:24;;;;;;;3.20;1.70;;;-2.70;99.90;;;;;;5081758;28;20421;-82
2022/01/27 02:51:54;;;;;;;1.97;1.50;;;-2.60;99.90;;;;;;5093581;28;20415;-82
2022/01/27 02:54:24;;;;;;;1.93;1.80;;;-2.50;99.90;;;;;;5096625;28;20484;-83
2022/01/27 02:56:51;;;;;;;1.57;1.47;;;-2.30;99.90;;;;;;5066481;23;20869;-60
2022/01/27 02:59:20;;;;;;;1.90;1.80;;;-2.20;99.90;;;;;;5057914;28;21005;-62
2022/01/27 03:01:48;;;;;;;2.20;1.83;;;-2.10;99.90;;;;;;5052719;28;20452;-62
2022/01/27 03:04:15;;;;;;;1.00;1.00;;;-2.70;99.90;;;;;;5054627;28;20446;-62
2022/01/27 03:06:42;;;;;;;2.00;1.30;;;-3.00;99.90;;;;;;5056922;28;20560;-61
2022/01/27 03:09:09;;;;;;;1.37;1.17;;;-2.80;99.90;;;;;;5051091;28;20878;-62
2022/01/27 03:11:44;;;;;;;2.80;1.40;;;-2.60;99.90;;;;;;5053994;28;20449;-62
2022/01/27 03:14:13;;;;;;;1.37;1.27;;;-2.40;99.90;;;;;;5054245;28;20440;-64
2022/01/27 03:16:40;;;;;;;1.10;1.00;;;-2.20;99.90;;;;;;5053282;28;21000;-61
2022/01/27 03:19:07;;;;;;;1.30;1.10;;;-2.60;99.90;;;;;;5056774;28;21153;-61
2022/01/27 03:21:34;;;;;;;1.37;1.27;;;-2.60;99.90;;;;;;5065065;28;20522;-63
2022/01/27 03:24:01;;;;;;;3.40;1.20;;;-2.40;99.90;;;;;;5050619;28;20541;-62
2022/01/27 03:26:29;;;;;;;1.33;1.23;;;-2.30;99.90;;;;;;5041886;28;20474;-62
2022/01/27 03:28:57;;;;;;;1.50;1.40;;;-2.60;99.90;;;;;;5049664;28;20513;-62
2022/01/27 03:31:24;;;;;;;1.80;1.70;;;-2.80;99.90;;;;;;5060871;28;20863;-61
2022/01/27 03:33:51;;;;;;;2.80;1.70;;;-2.60;99.90;;;;;;5059931;28;20974;-61
2022/01/27 03:36:19;;;;;;;1.50;1.40;;;-2.40;99.90;;;;;;5052940;28;21012;-62
2022/01/27 03:38:46;;;;;;;1.40;1.30;;;-2.60;99.90;;;;;;5057529;28;21044;-63
2022/01/27 03:41:18;;;;;;;1.60;1.50;;;-3.00;99.90;;;;;;5060985;28;20927;-62
2022/01/27 03:43:46;;;;;;;1.83;1.30;;;-2.80;99.90;;;;;;5044174;28;20941;-62
2022/01/27 03:46:15;;;;;;;1.87;1.33;;;-2.60;99.90;;;;;;5045897;28;21070;-65
2022/01/27 03:48:42;;;;;;;1.87;1.20;;;-2.50;99.90;;;;;;5046504;28;20481;-61
2022/01/27 03:51:09;;;;;;;1.47;1.37;;;-2.40;99.90;;;;;;5046217;28;20476;-60
2022/01/27 03:53:36;;;;;;;1.17;1.00;;;-2.30;99.90;;;;;;5049162;28;20466;-61
2022/01/27 03:56:03;;;;;;;2.27;1.00;;;-2.30;99.90;;;;;;5053344;28;20500;-62
2022/01/27 03:58:30;;;;;;;2.20;1.10;;;-2.20;99.90;;;;;;5056416;28;20474;-62
2022/01/27 04:00:57;;;;;;;0.90;0.90;;;-2.20;99.90;;;;;;5056339;28;20852;-62
2022/01/27 04:03:28;;;;;;;2.60;1.30;;;-2.20;99.90;;;;;;5056285;28;20477;-62
2022/01/27 04:05:56;;;;;;;2.40;2.00;;;-2.20;99.90;;;;;;5053404;28;20977;-62
2022/01/27 04:08:25;;;;;;;1.47;1.37;;;-2.20;99.90;;;;;;5051997;28;20457;-62
2022/01/27 04:10:52;;;;;;;1.37;1.27;;;-2.30;99.90;;;;;;5056166;28;20444;-63
2022/01/27 04:13:19;;;;;;;1.63;1.53;;;-2.30;99.90;;;;;;5055320;28;20480;-62
2022/01/27 04:15:46;;;;;;;1.23;1.13;;;-2.30;99.90;;;;;;5052617;28;20900;-62
2022/01/27 04:18:13;;;;;;;1.67;1.30;;;-2.30;99.90;;;;;;5048315;28;20454;-65
2022/01/27 04:20:42;;;;;;;1.80;1.50;;;-2.40;99.90;;;;;;5046047;28;20521;-62
2022/01/27 04:23:10;;;;;;;1.90;1.40;;;-2.30;99.90;;;;;;5050604;28;20484;-62
2022/01/27 04:25:38;;;;;;;3.90;1.87;;;-2.40;99.90;;;;;;5055790;28;20524;-62
2022/01/27 04:28:08;;;;;;;1.93;1.70;;;-2.40;99.90;;;;;;5050687;28;20818;-63
2022/01/27 04:30:35;;;;;;;1.77;1.43;;;-2.80;99.90;;;;;;5055087;28;20536;-63
2022/01/27 04:33:04;;;;;;;1.10;1.00;;;-2.70;99.90;;;;;;5049706;28;20445;-62
2022/01/27 04:35:37;;;;;;;1.30;1.20;;;-2.70;99.90;;;;;;5048648;28;20466;-61
2022/01/27 04:38:20;;;;;;;1.33;1.23;;;-2.60;99.90;;;;;;5057485;28;20444;-62
2022/01/27 04:40:56;;;;;;;3.23;1.33;;;-2.60;99.90;;;;;;5058561;28;20472;-62
2022/01/27 04:43:30;;;;;;;3.00;1.40;;;-2.60;99.90;;;;;;5049233;28;20865;-62
2022/01/27 04:46:05;;;;;;;1.30;1.20;;;-2.60;99.90;;;;;;5040065;28;20482;-62
2022/01/27 04:48:37;;;;;;;2.10;1.50;;;-2.50;99.90;;;;;;5062583;28;20436;-60
2022/01/27 04:51:07;;;;;;;1.60;1.50;;;-2.50;99.90;;;;;;5046342;28;20445;-62
2022/01/27 04:53:40;;;;;;;3.60;2.10;;;-2.60;99.90;;;;;;5041477;28;20446;-62
2022/01/27 04:56:11;;;;;;;1.87;1.67;;;-2.70;99.90;;;;;;5057125;28;21004;-62
2022/01/27 04:58:38;;;;;;;1.83;1.73;;;-2.70;99.90;;;;;;5055503;28;20521;-59
2022/01/27 05:01:06;;;;;;;2.90;1.90;;;-2.70;99.90;;;;;;5052958;28;20440;-63
2022/01/27 05:03:41;;;;;;;2.50;1.30;;;-2.70;99.90;;;;;;5057237;28;20888;-63
2022/01/27 05:06:08;;;;;;;2.03;1.30;;;-2.60;99.90;;;;;;5061895;28;20469;-61
2022/01/27 05:08:36;;;;;;;1.40;1.30;;;-2.50;99.90;;;;;;5066015;28;20469;-62
2022/01/27 05:11:08;;;;;;;1.17;1.07;;;-2.60;99.90;;;;;;5057821;28;20818;-62
2022/01/27 05:13:41;;;;;;;2.30;1.47;;;-2.60;99.90;;;;;;5058281;28;20545;-62
2022/01/27 05:16:08;;;;;;;1.60;1.50;;;-2.60;99.90;;;;;;5062458;28;20504;-61
2022/01/27 05:18:35;;;;;;;1.70;1.60;;;-2.70;99.90;;;;;;5056655;28;20457;-63
2022/01/27 05:21:03;;;;;;;1.90;1.80;;;-2.80;99.90;;;;;;5045521;28;20473;-61
2022/01/27 05:23:31;;;;;;;2.17;2.07;;;-3.00;99.90;;;;;;5051858;28;20464;-62
2022/01/27 05:25:59;;;;;;;2.30;1.60;;;-3.20;99.90;;;;;;5059561;28;20507;-62
2022/01/27 05:28:26;;;;;;;2.57;1.67;;;-3.50;99.90;;;;;;5071277;28;20533;-63
2022/01/27 05:30:53;;;;;;;2.10;1.93;;;-3.60;99.90;;;;;;5054253;28;20440;-64
2022/01/27 05:33:20;;;;;;;21.90;12.70;;;-3.40;99.90;;;;;;5054546;28;20449;-62
2022/01/27 05:35:47;;;;;;;5.27;4.33;;;-3.30;99.90;;;;;;5067873;28;20681;-63
2022/01/27 05:38:15;;;;;;;7.70;5.73;;;-3.10;99.90;;;;;;5061851;28;20549;-62
2022/01/27 05:40:43;;;;;;;4.23;2.73;;;-3.10;99.90;;;;;;5050743;28;20857;-63
2022/01/27 05:43:12;;;;;;;5.77;4.57;;;-3.30;99.90;;;;;;5053211;28;20891;-65
2022/01/27 05:45:40;;;;;;;4.20;3.43;;;-3.10;99.90;;;;;;5069709;28;20497;-62
2022/01/27 05:48:07;;;;;;;2.30;2.20;;;-3.00;99.90;;;;;;5056096;28;20476;-63
2022/01/27 05:50:34;;;;;;;5.53;5.00;;;-3.00;99.90;;;;;;5057230;28;20515;-62
2022/01/27 05:53:02;;;;;;;3.93;3.63;;;-2.90;99.90;;;;;;5051306;28;20885;-64
2022/01/27 05:55:29;;;;;;;4.53;4.20;;;-2.90;99.90;;;;;;5052372;28;20521;-63
2022/01/27 05:57:56;;;;;;;3.50;3.20;;;-2.80;99.90;;;;;;5051280;28;20483;-63
2022/01/27 06:00:24;;;;;;;5.97;5.57;;;-2.80;99.90;;;;;;5055555;28;20486;-63
2022/01/27 06:02:51;;;;;;;7.63;5.47;;;-2.80;99.90;;;;;;5051723;28;21003;-62
2022/01/27 06:05:18;;;;;;;10.03;8.90;;;-3.80;99.90;;;;;;5069556;28;20463;-60
2022/01/27 06:07:45;;;;;;;4.80;4.40;;;-4.10;99.90;;;;;;5047820;28;20878;-62
2022/01/27 06:10:13;;;;;;;6.63;5.97;;;-4.00;99.90;;;;;;5049201;28;20469;-60
2022/01/27 06:12:51;;;;;;;2.80;2.60;;;-3.70;99.90;;;;;;5044173;28;20477;-61
2022/01/27 06:15:18;;;;;;;2.10;1.90;;;-3.40;99.90;;;;;;5051529;28;20461;-63
2022/01/27 06:17:47;;;;;;;2.03;1.83;;;-3.40;99.90;;;;;;5046808;28;21828;-61
2022/01/27 06:20:15;;;;;;;4.60;4.30;;;-3.30;99.90;;;;;;5042255;28;20493;-63
2022/01/27 06:22:42;;;;;;;3.60;3.30;;;-3.10;99.90;;;;;;5054384;28;20449;-61
2022/01/27 06:25:09;;;;;;;3.60;3.10;;;-3.00;99.90;;;;;;5048889;28;20480;-60
2022/01/27 06:27:37;;;;;;;2.70;2.50;;;-3.30;99.90;;;;;;5051542;28;20476;-64
2022/01/27 06:30:06;;;;;;;2.60;2.40;;;-3.10;99.90;;;;;;5047752;28;20477;-61
2022/01/27 06:32:33;;;;;;;3.83;3.43;;;-3.00;99.90;;;;;;5048057;28;20477;-61
2022/01/27 06:35:03;;;;;;;3.13;2.20;;;-3.00;99.90;;;;;;5046111;28;20536;-62
2022/01/27 06:37:31;;;;;;;3.13;2.90;;;-3.00;99.90;;;;;;5049365;28;20964;-62
2022/01/27 06:39:58;;;;;;;2.80;2.60;;;-3.20;99.90;;;;;;5063973;28;20558;-61
2022/01/27 06:42:25;;;;;;;1.93;1.73;;;-3.00;99.90;;;;;;5059606;28;20884;-62
2022/01/27 06:44:52;;;;;;;4.07;2.60;;;-2.90;99.90;;;;;;5053035;28;20473;-63
2022/01/27 06:47:19;;;;;;;2.53;2.33;;;-2.80;99.90;;;;;;5056190;28;20493;-64
2022/01/27 06:49:46;;;;;;;2.37;1.90;;;-2.90;99.90;;;;;;5046052;28;21024;-65
2022/01/27 06:52:14;;;;;;;1.87;1.60;;;-3.20;99.90;;;;;;5054050;28;20534;-63
2022/01/27 06:54:42;;;;;;;1.00;1.00;;;-3.20;99.90;;;;;;5050317;28;20449;-63
2022/01/27 06:57:09;;;;;;;1.30;1.20;;;-3.30;99.90;;;;;;5057893;28;20957;-63
2022/01/27 06:59:36;;;;;;;0.90;0.90;;;-3.40;99.90;;;;;;5066634;28;22353;-62
2022/01/27 07:02:04;;;;;;;1.40;1.10;;;-3.30;99.90;;;;;;5053421;28;20476;-64
2022/01/27 07:04:30;;;;;;;1.30;1.10;;;-3.20;99.90;;;;;;5050608;28;20478;-64
2022/01/27 07:06:57;;;;;;;4.40;3.83;;;-3.10;99.90;;;;;;5062311;28;20496;-62
2022/01/27 07:09:26;;;;;;;4.90;4.40;;;-3.00;99.90;;;;;;5065708;28;20985;-63
2022/01/27 07:11:52;;;;;;;6.03;3.10;;;-3.10;99.90;;;;;;5051220;28;20503;-64
2022/01/27 07:14:19;;;;;;;4.43;2.53;;;-3.10;99.90;;;;;;5054949;28;20499;-64
2022/01/27 07:16:46;;;;;;;2.27;2.07;;;-3.30;99.90;;;;;;5064616;28;20984;-63
2022/01/27 07:19:13;;;;;;;3.83;1.23;;;-3.30;99.90;;;;;;5048710;28;20449;-64
2022/01/27 07:21:40;;;;;;;1.30;1.20;;;-3.20;99.90;;;;;;5050428;28;20505;-64
2022/01/27 07:24:07;;;;;;;4.33;3.93;;;-3.00;99.90;;;;;;5059560;28;20438;-64
2022/01/27 07:26:36;;;;;;;3.50;3.00;;;-2.90;99.90;;;;;;5065604;28;20542;-64
2022/01/27 07:29:03;;;;;;;3.30;3.07;;;-2.80;99.90;;;;;;5050955;28;20498;-63
2022/01/27 07:31:30;;;;;;;3.00;2.20;;;-2.80;99.90;;;;;;5050023;28;20890;-62
2022/01/27 07:33:58;;;;;;;2.70;2.50;;;-2.70;99.90;;;;;;5056761;28;20471;-63
2022/01/27 07:36:25;;;;;;;2.80;2.10;;;-2.80;99.90;;;;;;5059930;28;20467;-63
2022/01/27 07:38:52;;;;;;;2.40;2.20;;;-3.20;99.90;;;;;;5053383;28;20836;-62
2022/01/27 07:41:19;;;;;;;1.77;1.67;;;-3.00;99.90;;;;;;5055889;28;20505;-63
2022/01/27 07:43:48;;;;;;;3.70;2.30;;;-2.90;99.90;;;;;;5063204;28;20457;-64
2022/01/27 07:46:15;;;;;;;2.47;2.20;;;-2.90;99.90;;;;;;5055708;28;20491;-63
2022/01/27 07:48:42;;;;;;;3.10;2.90;;;-2.80;99.90;;;;;;5051071;28;20495;-62
2022/01/27 07:51:10;;;;;;;2.17;1.97;;;-2.70;99.90;;;;;;5056338;28;20470;-64
2022/01/27 07:53:38;;;;;;;1.80;1.70;;;-2.70;99.90;;;;;;5064678;28;20530;-63
2022/01/27 07:56:06;;;;;;;1.50;1.40;;;-2.70;99.90;;;;;;5052420;28;20545;-63
2022/01/27 07:58:38;;;;;;;1.77;1.60;;;-2.80;99.90;;;;;;5051987;28;20866;-63
2022/01/27 08:01:08;;;;;;;2.47;1.83;;;-2.80;99.90;;;;;;5059528;28;20562;-63
2022/01/27 08:03:36;;;;;;;6.47;5.90;;;-2.60;99.90;;;;;;5061607;28;20860;-63
2022/01/27 08:06:03;;;;;;;4.20;3.40;;;-3.00;99.90;;;;;;5045445;28;20552;-63
2022/01/27 08:08:30;;;;;;;2.50;2.27;;;-3.40;99.90;;;;;;5053300;28;20551;-63
2022/01/27 08:10:58;;;;;;;3.17;2.87;;;-3.30;99.90;;;;;;5057750;28;20471;-64
2022/01/27 08:13:25;;;;;;;2.37;2.20;;;-3.10;99.90;;;;;;5058216;28;20438;-62
2022/01/27 08:15:52;;;;;;;2.60;2.50;;;-3.10;99.90;;;;;;5047916;28;20940;-61
2022/01/27 08:18:21;;;;;;;11.20;5.80;;;-3.30;99.90;;;;;;5052061;28;20486;-63
2022/01/27 08:20:49;;;;;;;9.53;7.20;;;-3.10;99.90;;;;;;5054320;28;20489;-63
2022/01/27 08:23:16;;;;;;;6.57;5.87;;;-2.90;99.90;;;;;;5056140;28;20448;-63
2022/01/27 08:25:48;;;;;;;15.67;14.00;;;-2.90;99.90;;;;;;5049831;28;20465;-62
2022/01/27 08:28:22;;;;;;;64.07;36.87;;;-3.10;99.90;;;;;;5054894;28;20450;-64
2022/01/27 08:30:51;;;;;;;38.40;24.90;;;-3.00;99.90;;;;;;5063618;28;20529;-63
2022/01/27 08:33:20;;;;;;;9.57;8.57;;;-2.80;99.90;;;;;;5053552;28;20498;-64
2022/01/27 08:35:47;;;;;;;5.57;5.07;;;-3.20;99.90;;;;;;5050765;28;20492;-63
2022/01/27 08:38:14;;;;;;;3.80;3.47;;;-3.30;99.90;;;;;;5055527;28;20473;-65
2022/01/27 08:40:42;;;;;;;2.63;2.43;;;-3.30;99.90;;;;;;5065119;28;20545;-63
2022/01/27 08:43:09;;;;;;;11.17;8.50;;;-3.20;99.90;;;;;;5052937;28;20468;-61
2022/01/27 08:45:38;;;;;;;19.60;13.50;;;-3.10;99.90;;;;;;5051688;28;20889;-59
2022/01/27 08:48:06;;;;;;;10.77;9.67;;;-3.00;99.90;;;;;;5059602;28;20480;-62
2022/01/27 08:50:35;;;;;;;6.60;6.00;;;-3.50;99.90;;;;;;5062707;28;20523;-62
2022/01/27 08:53:02;;;;;;;5.23;4.73;;;-3.60;99.90;;;;;;5047488;28;20821;-63
2022/01/27 08:55:29;;;;;;;10.43;6.90;;;-3.50;99.90;;;;;;5075100;23;20502;-58
2022/01/27 08:57:56;;;;;;;12.30;10.50;;;-3.30;99.90;;;;;;5042351;28;20476;-57
2022/01/27 09:00:23;;;;;;;14.73;12.37;;;-3.30;99.90;;;;;;5036260;28;21025;-57
2022/01/27 09:02:50;;;;;;;8.07;7.13;;;-3.80;99.90;;;;;;5030752;28;20528;-57
2022/01/27 09:05:17;;;;;;;9.43;8.52;;;-3.60;99.90;;;;;;5036826;28;20474;-57
2022/01/27 09:07:45;;;;;;;15.77;10.93;;;-3.30;99.90;;;;;;5034029;28;20227;-56
2022/01/27 09:10:12;;;;;;;9.03;7.20;;;-3.20;99.90;;;;;;5034665;28;20469;-59
2022/01/27 09:12:39;;;;;;;9.40;8.50;;;-3.20;99.90;;;;;;5029782;28;21030;-56
2022/01/27 09:15:07;;;;;;;10.90;8.90;;;-3.00;99.90;;;;;;5038790;28;20488;-57
2022/01/27 09:17:39;;;;;;;9.07;8.00;;;-2.90;99.90;;;;;;5038237;28;20462;-57
2022/01/27 09:20:09;;;;;;;7.17;5.63;;;-2.90;99.90;;;;;;5032981;28;20849;-57
2022/01/27 09:22:37;;;;;;;4.47;4.07;;;-2.90;99.90;;;;;;5028858;28;20924;-57
2022/01/27 09:25:14;;;;;;;5.73;5.13;;;-2.80;99.90;;;;;;5039433;28;20478;-57
2022/01/27 09:27:42;;;;;;;5.23;4.80;;;-2.90;99.90;;;;;;5044092;28;20523;-59
2022/01/27 09:30:11;;;;;;;4.43;4.03;;;-2.80;99.90;;;;;;5032789;28;20484;-57
2022/01/27 09:32:38;;;;;;;4.90;3.67;;;-2.60;99.90;;;;;;5032451;28;20442;-56
2022/01/27 09:35:06;;;;;;;3.30;3.00;;;-2.50;99.90;;;;;;5042170;28;20473;-56
2022/01/27 09:37:33;;;;;;;5.17;3.20;;;-2.50;99.90;;;;;;5036824;28;20468;-57
2022/01/27 09:40:01;;;;;;;8.90;7.40;;;-2.40;99.90;;;;;;5030248;28;20437;-59
2022/01/27 09:42:33;;;;;;;8.30;7.60;;;-2.80;99.90;;;;;;5031653;28;20559;-57
2022/01/27 09:45:03;;;;;;;5.53;4.60;;;-3.30;99.90;;;;;;5031166;28;20950;-57
2022/01/27 09:47:33;;;;;;;3.50;3.30;;;-3.20;99.90;;;;;;5030841;28;20474;-57
2022/01/27 09:50:19;;;;;;;2.83;2.60;;;-3.10;99.90;;;;;;5035318;28;20608;-57
2022/01/27 09:52:46;;;;;;;3.50;2.80;;;-3.00;99.90;;;;;;5040515;28;20459;-57
2022/01/27 09:55:13;;;;;;;3.10;2.90;;;-2.80;99.90;;;;;;5035520;28;20875;-58
2022/01/27 09:57:41;;;;;;;34.33;28.87;;;-2.60;99.90;;;;;;5038642;28;20498;-56
2022/01/27 10:00:09;;;;;;;25.90;22.60;;;-2.70;99.90;;;;;;5039644;28;20483;-57
2022/01/27 10:02:36;;;;;;;7.00;6.30;;;-2.50;99.90;;;;;;5041609;28;20515;-57
2022/01/27 10:05:03;;;;;;;4.03;3.73;;;-2.30;99.90;;;;;;5037419;28;20507;-58
2022/01/27 10:07:36;;;;;;;4.90;4.43;;;-2.10;99.90;;;;;;5036518;28;21009;-61
2022/01/27 10:10:06;;;;;;;5.50;3.80;;;-1.90;99.90;;;;;;5040771;28;20488;-57
2022/01/27 10:12:37;;;;;;;4.50;3.90;;;-1.90;99.90;;;;;;5043253;28;20480;-60
2022/01/27 10:15:09;;;;;;;6.53;4.30;;;-1.80;99.90;;;;;;5045656;28;20495;-56
2022/01/27 10:17:38;;;;;;;3.83;2.90;;;-1.70;99.90;;;;;;5033206;28;20535;-56
2022/01/27 10:20:16;;;;;;;2.20;2.00;;;-1.50;99.90;;;;;;5040852;28;20457;-57
2022/01/27 10:22:43;;;;;;;2.13;1.90;;;-1.70;99.90;;;;;;5041774;28;20509;-57
2022/01/27 10:25:20;;;;;;;3.73;3.43;;;-1.60;99.90;;;;;;5039797;28;20792;-56
2022/01/27 10:27:57;;;;;;;7.93;4.70;;;-1.50;99.90;;;;;;5040846;28;20465;-57
2022/01/27 10:33:13;;;;;;;11.57;9.60;;;-1.50;99.90;;;;;;5033372;28;20449;-56
2022/01/27 10:35:40;;;;;;;11.17;7.57;;;-1.40;99.90;;;;;;5034206;28;20505;-54
2022/01/27 10:38:08;;;;;;;7.03;5.83;;;-1.20;99.90;;;;;;5038592;28;20504;-56
2022/01/27 10:40:37;;;;;;;10.17;6.60;;;-1.10;99.90;;;;;;5042943;28;20531;-56
2022/01/27 10:43:08;;;;;;;8.60;6.67;;;-1.00;99.90;;;;;;5039650;28;20468;-58
2022/01/27 10:45:38;;;;;;;9.90;8.40;;;-1.00;99.90;;;;;;5039720;28;20871;-56
2022/01/27 10:48:12;;;;;;;4.80;4.40;;;-1.10;99.90;;;;;;5040530;28;20461;-57
2022/01/27 10:50:56;;;;;;;15.03;9.63;;;-1.30;99.90;;;;;;5041748;28;20457;-59
2022/01/27 10:53:25;;;;;;;10.73;7.47;;;-1.10;99.90;;;;;;5042537;28;20516;-59
2022/01/27 10:56:15;;;;;;;9.40;6.50;;;-0.90;99.90;;;;;;5030334;28;20881;-58
2022/01/27 10:58:44;;;;;;;7.43;5.57;;;-0.70;99.90;;;;;;5040697;28;20469;-56
2022/01/27 11:01:21;;;;;;;5.73;4.90;;;-0.60;99.90;;;;;;5035368;28;20493;-56
2022/01/27 11:03:51;;;;;;;5.00;3.83;;;-0.40;99.90;;;;;;5033789;28;20495;-57
2022/01/27 11:06:19;;;;;;;3.17;2.63;;;-0.30;99.90;;;;;;5036854;28;20465;-56
2022/01/27 11:08:47;;;;;;;5.47;3.90;;;-0.20;99.90;;;;;;5036109;28;20812;-56
2022/01/27 11:11:14;;;;;;;5.47;5.00;;;-0.20;99.90;;;;;;5042297;28;20492;-56
2022/01/27 11:13:43;;;;;;;6.43;5.47;;;-0.10;99.90;;;;;;5032476;28;20470;-56
2022/01/27 11:16:16;;;;;;;11.03;8.03;;;-0.10;99.90;;;;;;5038920;28;20470;-58
2022/01/27 11:18:45;;;;;;;4.83;4.43;;;-0.10;99.90;;;;;;5032310;28;20456;-57
2022/01/27 11:21:24;;;;;;;3.80;3.07;;;-0.10;99.90;;;;;;5037936;28;20520;-56
2022/01/27 11:24:07;;;;;;;5.10;4.40;;;0.00;99.90;;;;;;5047555;28;21026;-57
2022/01/27 11:26:37;;;;;;;6.40;5.80;;;0.00;99.90;;;;;;5039489;28;20839;-57
2022/01/27 11:29:06;;;;;;;4.90;4.50;;;0.10;99.90;;;;;;5033595;28;20446;-57
2022/01/27 11:31:51;;;;;;;5.43;4.57;;;0.10;99.90;;;;;;5031011;28;21030;-57
2022/01/27 11:34:18;;;;;;;4.67;4.17;;;-0.20;99.90;;;;;;5025893;28;20447;-57
2022/01/27 11:37:01;;;;;;;3.90;3.57;;;-0.20;99.90;;;;;;5030298;28;21029;-56
2022/01/27 11:39:55;;;;;;;3.93;3.60;;;-0.10;99.90;;;;;;5026654;28;20479;-58
2022/01/27 11:42:42;;;;;;;5.30;4.20;;;0.00;99.90;;;;;;5025399;28;20502;-57
2022/01/27 11:45:29;;;;;;;3.40;3.10;;;0.10;99.90;;;;;;5026939;28;20432;-56
2022/01/27 11:48:01;;;;;;;3.93;3.30;;;0.20;99.90;;;;;;5029686;28;20451;-56
2022/01/27 11:50:35;;;;;;;6.30;4.30;;;0.30;99.90;;;;;;5026402;28;20823;-56
2022/01/27 11:53:03;;;;;;;4.60;4.20;;;0.30;99.90;;;;;;5040390;28;20485;-57
2022/01/27 11:55:54;;;;;;;7.80;6.30;;;0.30;99.90;;;;;;5041718;28;20484;-57
2022/01/27 11:58:24;;;;;;;7.63;6.60;;;0.00;99.90;;;;;;5025171;28;20978;-57
2022/01/27 12:01:17;;;;;;;8.27;7.03;;;0.00;99.90;;;;;;5037951;28;20657;-56
2022/01/27 12:04:16;;;;;;;10.97;7.10;;;0.20;99.90;;;;;;5039795;28;20551;-56
2022/01/27 12:06:59;;;;;;;7.10;5.43;;;0.20;99.90;;;;;;5039589;28;20486;-56
2022/01/27 12:09:31;;;;;;;6.10;5.13;;;0.20;99.90;;;;;;5036326;28;20504;-60
2022/01/27 12:12:00;;;;;;;6.40;5.80;;;0.30;99.90;;;;;;5035392;28;20460;-57
2022/01/27 12:14:49;;;;;;;6.60;5.30;;;0.40;99.90;;;;;;5030625;28;20530;-56
2022/01/27 12:17:27;;;;;;;5.40;4.90;;;0.50;99.90;;;;;;5038476;28;20553;-56
2022/01/27 12:19:57;;;;;;;6.83;4.50;;;0.60;99.90;;;;;;5022091;28;20447;-57
2022/01/27 12:22:27;;;;;;;4.90;4.50;;;0.40;99.90;;;;;;5044151;28;20512;-56
2022/01/27 12:24:56;;;;;;;5.30;4.43;;;0.40;99.90;;;;;;5040635;28;20979;-56
2022/01/27 12:27:24;;;;;;;4.27;3.87;;;0.50;99.90;;;;;;5041481;28;20554;-56
2022/01/27 12:29:53;;;;;;;4.37;3.97;;;0.60;99.90;;;;;;5035039;28;20470;-57
2022/01/27 12:32:21;;;;;;;4.73;3.80;;;0.70;99.90;;;;;;5037809;28;20479;-56
2022/01/27 12:34:51;;;;;;;5.40;4.90;;;0.70;99.90;;;;;;5040702;28;20996;-56
2022/01/27 12:37:21;;;;;;;4.03;3.63;;;0.80;99.90;;;;;;5034688;28;20521;-59
2022/01/27 12:39:53;;;;;;;3.40;3.10;;;0.90;99.90;;;;;;5034925;28;20944;-56
2022/01/27 12:42:21;;;;;;;2.97;2.73;;;0.90;99.90;;;;;;5035948;28;21049;-57
2022/01/27 12:44:57;;;;;;;4.73;4.00;;;1.00;99.90;;;;;;5031695;28;20485;-56
2022/01/27 12:47:25;;;;;;;5.50;5.00;;;1.00;99.90;;;;;;5042001;28;20460;-56
2022/01/27 12:50:03;;;;;;;5.03;4.63;;;1.10;99.90;;;;;;5039930;28;20967;-56
2022/01/27 12:52:33;;;;;;;3.40;3.10;;;1.10;99.90;;;;;;5034630;28;20455;-56
2022/01/27 12:55:00;;;;;;;4.50;3.63;;;1.10;99.90;;;;;;5039491;28;20475;-56
2022/01/27 12:57:30;;;;;;;5.07;3.70;;;1.20;99.90;;;;;;5040957;28;20505;-56
2022/01/27 12:59:58;;;;;;;4.33;4.00;;;1.20;99.90;;;;;;5034282;28;20447;-57
2022/01/27 13:02:26;;;;;;;3.33;3.03;;;1.20;99.90;;;;;;5037402;28;21009;-56
2022/01/27 13:04:56;;;;;;;4.57;3.57;;;1.10;99.90;;;;;;5030366;28;20480;-57
2022/01/27 13:07:25;;;;;;;4.33;3.93;;;1.10;99.90;;;;;;5032597;28;21001;-56
2022/01/27 13:10:00;;;;;;;3.50;3.20;;;1.20;99.90;;;;;;5030340;28;20518;-56
2022/01/27 13:12:32;;;;;;;5.87;4.17;;;1.20;99.90;;;;;;5037326;28;20458;-56
2022/01/27 13:15:05;;;;;;;6.60;6.00;;;1.20;99.90;;;;;;5041732;28;20437;-56
2022/01/27 13:17:39;;;;;;;11.40;7.33;;;1.10;99.90;;;;;;5028260;28;20990;-56
2022/01/27 13:20:26;;;;;;;6.43;5.90;;;1.20;99.90;;;;;;5037980;28;20951;-56
2022/01/27 13:22:58;;;;;;;7.80;7.13;;;1.20;99.90;;;;;;5040599;28;20483;-56
2022/01/27 13:25:38;;;;;;;7.63;6.93;;;1.30;99.90;;;;;;5042797;28;20450;-57
2022/01/27 13:28:07;;;;;;;8.10;7.30;;;1.30;99.90;;;;;;5032261;28;20527;-57
2022/01/27 13:30:35;;;;;;;11.20;7.80;;;1.30;99.90;;;;;;5050012;28;20445;-55
2022/01/27 13:33:05;;;;;;;16.13;14.53;;;1.20;99.90;;;;;;5036787;28;20449;-56